Time;durP1;ratioP1;P1;durP2;ratioP2;P2;SDS_P1;SDS_P2;PMS_P1;PMS_P2;Temp;Humidity;BMP_temperature;BMP_pressure;BME280_temperature;BME280_humidity;BME280_pressure;Samples;Min_cycle;Max_cycle;Signal;HPM_P1;HPM_P2
2021/10/21 00:01:37;;;;;;;14.20;9.90;;;;;;;;;;4971446;28;20023;-74
2021/10/21 00:04:03;;;;;;;14.35;10.18;;;;;;;;;;4971752;28;20038;-73
2021/10/21 00:06:30;;;;;;;13.88;10.23;;;;;;;;;;4976152;28;20023;-74
2021/10/21 00:09:06;;;;;;;14.57;9.93;;;;;;;;;;4975985;28;20484;-74
2021/10/21 00:11:35;;;;;;;14.65;10.10;;;;;;;;;;4963249;28;20082;-71
2021/10/21 00:14:02;;;;;;;17.63;9.57;;;;;;;;;;4975306;28;20496;-74
2021/10/21 00:16:28;;;;;;;13.00;9.32;;;;;;;;;;4973250;28;20043;-74
2021/10/21 00:18:54;;;;;;;13.73;9.88;;;;;;;;;;4961443;28;20138;-73
2021/10/21 00:21:20;;;;;;;15.68;10.48;;;;;;;;;;4969646;28;20031;-73
2021/10/21 00:23:46;;;;;;;14.75;9.82;;;;;;;;;;4969724;28;20487;-73
2021/10/21 00:26:13;;;;;;;17.98;11.35;;;;;;;;;;4973753;28;20477;-74
2021/10/21 00:32:18;;;;;;;16.63;11.15;;;;;;;;;;4970109;28;20114;-73
2021/10/21 00:34:54;;;;;;;15.10;10.43;;;;;;;;;;4944706;28;20058;-74
2021/10/21 00:37:20;;;;;;;12.30;8.85;;;;;;;;;;4959055;28;20023;-72
2021/10/21 00:39:46;;;;;;;13.18;9.50;;;;;;;;;;4970368;28;20090;-73
2021/10/21 00:45:18;;;;;;;13.95;9.73;;;;;;;;;;4971396;28;20049;-74
2021/10/21 00:47:44;;;;;;;12.77;8.70;;;;;;;;;;4972682;28;20065;-74
2021/10/21 00:50:10;;;;;;;12.63;9.10;;;;;;;;;;4962723;28;20035;-73
2021/10/21 00:52:37;;;;;;;11.77;7.93;;;;;;;;;;4975189;28;20050;-73
2021/10/21 00:55:04;;;;;;;11.57;8.15;;;;;;;;;;4971253;28;20472;-73
2021/10/21 00:57:30;;;;;;;13.25;8.90;;;;;;;;;;4974325;28;20241;-74
2021/10/21 00:59:56;;;;;;;12.93;8.30;;;;;;;;;;4975370;28;20029;-72
2021/10/21 01:02:23;;;;;;;11.82;8.20;;;;;;;;;;4975013;28;20022;-73
2021/10/21 01:04:49;;;;;;;12.65;8.18;;;;;;;;;;4972750;28;20027;-74
2021/10/21 01:07:15;;;;;;;10.73;8.63;;;;;;;;;;4969610;28;20384;-74
2021/10/21 01:09:43;;;;;;;10.90;7.45;;;;;;;;;;4967464;28;20050;-73
2021/10/21 01:12:10;;;;;;;10.15;7.20;;;;;;;;;;4970490;28;20053;-74
2021/10/21 01:14:36;;;;;;;11.35;7.85;;;;;;;;;;4974564;28;20035;-74
2021/10/21 01:17:02;;;;;;;10.73;8.05;;;;;;;;;;4973221;28;20031;-73
2021/10/21 01:20:03;;;;;;;11.20;8.32;;;;;;;;;;4974623;28;20408;-74
2021/10/21 01:22:29;;;;;;;11.68;8.07;;;;;;;;;;4934212;29;20087;-73
2021/10/21 01:24:55;;;;;;;12.93;8.43;;;;;;;;;;4933572;29;20503;-73
2021/10/21 01:27:21;;;;;;;11.35;8.10;;;;;;;;;;4933509;29;20456;-73
2021/10/21 01:29:47;;;;;;;11.65;7.90;;;;;;;;;;4933455;29;20521;-73
2021/10/21 01:32:22;;;;;;;10.27;8.15;;;;;;;;;;4933325;29;20048;-73
2021/10/21 01:34:48;;;;;;;9.98;7.78;;;;;;;;;;4933780;29;20043;-74
2021/10/21 01:37:14;;;;;;;9.18;7.10;;;;;;;;;;4933679;29;20039;-74
2021/10/21 01:39:40;;;;;;;10.43;8.32;;;;;;;;;;4933842;29;20048;-72
2021/10/21 01:42:06;;;;;;;10.80;7.65;;;;;;;;;;4933870;29;20027;-74
2021/10/21 01:44:32;;;;;;;10.38;7.85;;;;;;;;;;4933410;29;20470;-73
2021/10/21 01:47:01;;;;;;;10.30;7.18;;;;;;;;;;4933560;29;20122;-73
2021/10/21 01:49:27;;;;;;;10.02;7.60;;;;;;;;;;4935508;29;20501;-74
2021/10/21 01:51:53;;;;;;;9.15;7.28;;;;;;;;;;4933502;29;20564;-74
2021/10/21 01:54:19;;;;;;;8.98;7.20;;;;;;;;;;4932952;29;20557;-74
2021/10/21 01:56:45;;;;;;;9.45;7.25;;;;;;;;;;4933278;29;20032;-74
2021/10/21 01:59:11;;;;;;;10.98;7.60;;;;;;;;;;4943492;28;20102;-74
2021/10/21 02:04:50;;;;;;;11.38;7.28;;;;;;;;;;4940560;28;20059;-74
2021/10/21 02:07:16;;;;;;;10.10;7.38;;;;;;;;;;4952841;28;20614;-74
2021/10/21 02:09:44;;;;;;;9.40;7.22;;;;;;;;;;4952793;28;20415;-72
2021/10/21 02:12:11;;;;;;;9.50;7.03;;;;;;;;;;4954943;28;20030;-74
2021/10/21 02:15:18;;;;;;;;;;;;;;;;;;;;;
2021/10/21 02:17:46;;;;;;;9.38;6.95;;;;;;;;;;4949078;28;20034;-72
2021/10/21 02:20:14;;;;;;;9.95;7.05;;;;;;;;;;4948105;28;20114;-74
2021/10/21 02:22:41;;;;;;;11.40;7.75;;;;;;;;;;4937838;28;20024;-75
2021/10/21 02:25:08;;;;;;;11.55;7.47;;;;;;;;;;4954600;28;20027;-74
2021/10/21 02:27:34;;;;;;;11.40;6.70;;;;;;;;;;4953036;28;20081;-74
2021/10/21 02:30:01;;;;;;;9.05;7.25;;;;;;;;;;4954146;29;20078;-73
2021/10/21 02:32:27;;;;;;;8.52;7.13;;;;;;;;;;4952509;28;20039;-74
2021/10/21 02:34:55;;;;;;;9.00;6.65;;;;;;;;;;4945251;28;20044;-74
2021/10/21 02:37:38;;;;;;;9.50;7.05;;;;;;;;;;4938651;28;20045;-74
2021/10/21 02:40:05;;;;;;;10.93;7.83;;;;;;;;;;4954120;28;20035;-73
2021/10/21 02:43:01;;;;;;;9.88;6.80;;;;;;;;;;4949041;28;20276;-74
2021/10/21 02:45:27;;;;;;;11.00;6.40;;;;;;;;;;4913560;29;20028;-72
2021/10/21 02:47:53;;;;;;;9.23;6.82;;;;;;;;;;4902025;29;20409;-74
2021/10/21 02:50:19;;;;;;;10.10;7.05;;;;;;;;;;4913929;29;20036;-74
2021/10/21 02:52:45;;;;;;;9.20;6.90;;;;;;;;;;4925221;29;20075;-74
2021/10/21 02:55:11;;;;;;;8.48;6.88;;;;;;;;;;4932611;29;20044;-74
2021/10/21 02:57:38;;;;;;;9.15;6.70;;;;;;;;;;4932769;29;20052;-73
2021/10/21 03:00:05;;;;;;;9.57;6.53;;;;;;;;;;4933095;29;20086;-74
2021/10/21 03:02:31;;;;;;;7.78;6.63;;;;;;;;;;4933561;29;20032;-74
2021/10/21 03:04:57;;;;;;;8.88;6.68;;;;;;;;;;4941100;29;20486;-73
2021/10/21 03:07:23;;;;;;;9.07;7.10;;;;;;;;;;4933180;29;20036;-74
2021/10/21 03:09:49;;;;;;;10.35;6.80;;;;;;;;;;4932362;29;20627;-70
2021/10/21 03:12:17;;;;;;;9.52;6.68;;;;;;;;;;4933027;29;20036;-74
2021/10/21 03:14:43;;;;;;;9.45;6.70;;;;;;;;;;4933646;29;20063;-74
2021/10/21 03:17:09;;;;;;;9.68;6.75;;;;;;;;;;4938452;29;20036;-72
2021/10/21 03:19:36;;;;;;;8.13;6.32;;;;;;;;;;4932959;29;20028;-74
2021/10/21 03:22:03;;;;;;;10.82;6.40;;;;;;;;;;4946966;28;20047;-73
2021/10/21 03:24:29;;;;;;;8.80;6.22;;;;;;;;;;4955269;28;20035;-73
2021/10/21 03:26:55;;;;;;;11.95;6.88;;;;;;;;;;4952625;28;20062;-74
2021/10/21 03:29:21;;;;;;;9.93;6.20;;;;;;;;;;4951128;28;20027;-74
2021/10/21 03:31:47;;;;;;;8.25;6.35;;;;;;;;;;4957147;28;20027;-74
2021/10/21 03:34:13;;;;;;;10.15;6.07;;;;;;;;;;4949237;28;20031;-74
2021/10/21 03:36:57;;;;;;;9.10;6.22;;;;;;;;;;4949500;28;20576;-74
2021/10/21 03:39:23;;;;;;;;;;;;;;;;;;4945655;28;20079;-74
2021/10/21 03:41:49;;;;;;;8.13;5.95;;;;;;;;;;4956034;28;19965;-74
2021/10/21 03:44:15;;;;;;;7.35;5.93;;;;;;;;;;4955233;28;20031;-75
2021/10/21 03:46:41;;;;;;;7.85;5.75;;;;;;;;;;4942546;28;20160;-74
2021/10/21 03:49:07;;;;;;;8.60;6.10;;;;;;;;;;4954381;28;20024;-74
2021/10/21 03:51:34;;;;;;;11.60;6.85;;;;;;;;;;4959962;28;20049;-75
2021/10/21 03:57:18;;;;;;;9.88;6.40;;;;;;;;;;4908409;29;20044;-72
2021/10/21 03:59:44;;;;;;;11.07;6.78;;;;;;;;;;4916910;29;20028;-75
2021/10/21 04:02:38;;;;;;;11.27;8.00;;;;;;;;;;4917500;29;20084;-74
2021/10/21 04:05:05;;;;;;;11.57;7.40;;;;;;;;;;4916379;29;20051;-74
2021/10/21 04:07:31;;;;;;;8.00;6.05;;;;;;;;;;4911135;29;20573;-74
2021/10/21 04:09:59;;;;;;;8.77;6.70;;;;;;;;;;4916576;29;20482;-74
2021/10/21 04:12:31;;;;;;;9.90;6.05;;;;;;;;;;4918538;29;20154;-74
2021/10/21 04:14:58;;;;;;;8.98;6.10;;;;;;;;;;4897869;29;20047;-72
2021/10/21 04:17:24;;;;;;;9.20;6.28;;;;;;;;;;4909412;29;20493;-74
2021/10/21 04:19:50;;;;;;;10.35;5.90;;;;;;;;;;4906016;29;20032;-74
2021/10/21 04:22:16;;;;;;;9.10;6.22;;;;;;;;;;4915193;29;20150;-73
2021/10/21 04:24:42;;;;;;;8.55;6.20;;;;;;;;;;4918937;29;20032;-74
2021/10/21 04:27:35;;;;;;;10.23;6.35;;;;;;;;;;4908601;29;20088;-75
2021/10/21 04:30:01;;;;;;;11.80;6.07;;;;;;;;;;4910796;29;20036;-74
2021/10/21 04:32:59;;;;;;;8.98;6.45;;;;;;;;;;4911501;29;20028;-75
2021/10/21 04:35:25;;;;;;;11.85;6.53;;;;;;;;;;4934925;29;20059;-74
2021/10/21 04:37:52;;;;;;;9.82;6.50;;;;;;;;;;4942803;29;20400;-74
2021/10/21 04:40:18;;;;;;;10.90;6.63;;;;;;;;;;4941392;29;20034;-74
2021/10/21 04:42:44;;;;;;;13.02;6.32;;;;;;;;;;4954439;29;20019;-72
2021/10/21 04:45:10;;;;;;;17.52;6.72;;;;;;;;;;4936444;29;20047;-74
2021/10/21 04:47:38;;;;;;;18.60;6.40;;;;;;;;;;4936464;29;20063;-74
2021/10/21 04:50:04;;;;;;;15.40;7.20;;;;;;;;;;4940791;29;20059;-74
2021/10/21 04:52:30;;;;;;;11.48;6.57;;;;;;;;;;4940881;28;20075;-74
2021/10/21 04:54:56;;;;;;;15.60;7.53;;;;;;;;;;4935216;29;20048;-74
2021/10/21 04:57:23;;;;;;;13.90;7.43;;;;;;;;;;4949303;29;20075;-74
2021/10/21 05:00:24;;;;;;;14.88;6.93;;;;;;;;;;4939506;29;20548;-74
2021/10/21 05:03:12;;;;;;;13.27;6.65;;;;;;;;;;4885372;29;20029;-74
2021/10/21 05:05:40;;;;;;;9.95;6.30;;;;;;;;;;4877716;29;20041;-73
2021/10/21 05:08:06;;;;;;;10.65;6.07;;;;;;;;;;4877422;29;20735;-74
2021/10/21 05:10:32;;;;;;;10.95;6.05;;;;;;;;;;4879224;29;20052;-63
2021/10/21 05:12:58;;;;;;;11.25;6.43;;;;;;;;;;4884721;29;20037;-75
2021/10/21 05:15:25;;;;;;;13.75;8.25;;;;;;;;;;4888546;29;20049;-73
2021/10/21 05:17:51;;;;;;;8.73;6.00;;;;;;;;;;4878281;29;20088;-72
2021/10/21 05:20:18;;;;;;;16.02;7.50;;;;;;;;;;4886149;29;20033;-70
2021/10/21 05:22:44;;;;;;;13.48;7.10;;;;;;;;;;4877309;29;20403;-74
2021/10/21 05:25:10;;;;;;;12.15;7.28;;;;;;;;;;4876016;29;20124;-72
2021/10/21 05:28:13;;;;;;;12.48;6.30;;;;;;;;;;4879097;29;20107;-72
2021/10/21 05:30:52;;;;;;;10.23;5.72;;;;;;;;;;4839445;29;20144;-75
2021/10/21 05:33:18;;;;;;;12.13;7.03;;;;;;;;;;4828568;29;20049;-75
2021/10/21 05:35:44;;;;;;;13.38;6.07;;;;;;;;;;4842306;29;20042;-70
2021/10/21 05:38:10;;;;;;;10.18;6.10;;;;;;;;;;4897025;29;20040;-71
2021/10/21 05:40:36;;;;;;;15.55;6.90;;;;;;;;;;4890490;29;20029;-71
2021/10/21 05:43:03;;;;;;;13.25;6.70;;;;;;;;;;4890780;29;20487;-71
2021/10/21 05:45:29;;;;;;;13.75;6.45;;;;;;;;;;4893829;29;20111;-71
2021/10/21 05:47:55;;;;;;;9.50;5.68;;;;;;;;;;4895568;29;20087;-72
2021/10/21 05:50:21;;;;;;;8.80;5.90;;;;;;;;;;4895788;29;20543;-71
2021/10/21 05:52:47;;;;;;;9.13;6.40;;;;;;;;;;4893924;29;20072;-71
2021/10/21 05:55:13;;;;;;;10.80;5.82;;;;;;;;;;4894491;29;20072;-71
2021/10/21 05:57:39;;;;;;;21.15;6.80;;;;;;;;;;4912231;29;20128;-69
2021/10/21 06:00:08;;;;;;;11.30;6.85;;;;;;;;;;4905702;29;20404;-71
2021/10/21 06:02:35;;;;;;;12.77;6.13;;;;;;;;;;4894620;29;20025;-69
2021/10/21 06:05:01;;;;;;;8.90;6.07;;;;;;;;;;4894051;29;20037;-72
2021/10/21 06:07:27;;;;;;;12.27;6.60;;;;;;;;;;4915911;28;20051;-74
2021/10/21 06:09:56;;;;;;;11.77;5.30;;;;;;;;;;4961521;28;20027;-72
2021/10/21 06:12:24;;;;;;;14.02;7.38;;;;;;;;;;4965728;28;20029;-69
2021/10/21 06:15:03;;;;;;;20.70;10.45;;;;;;;;;;4957804;28;20580;-73
2021/10/21 06:17:54;;;;;;;15.23;8.50;;;;;;;;;;4962963;28;20027;-75
2021/10/21 06:20:20;;;;;;;13.80;7.45;;;;;;;;;;4964855;28;20050;-73
2021/10/21 06:22:46;;;;;;;12.93;7.40;;;;;;;;;;4965230;28;20397;-73
2021/10/21 06:25:13;;;;;;;19.13;7.97;;;;;;;;;;4970850;28;20472;-75
2021/10/21 06:30:35;;;;;;;25.77;11.15;;;;;;;;;;4968525;28;20035;-74
2021/10/21 06:33:26;;;;;;;17.63;9.70;;;;;;;;;;4963506;29;20028;-75
2021/10/21 06:36:08;;;;;;;18.88;10.23;;;;;;;;;;4979213;28;20050;-76
2021/10/21 06:38:35;;;;;;;15.48;8.40;;;;;;;;;;4981133;28;20046;-77
2021/10/21 06:41:15;;;;;;;14.68;8.30;;;;;;;;;;4984017;28;20022;-76
2021/10/21 06:43:47;;;;;;;17.63;7.80;;;;;;;;;;4955099;28;20039;-72
2021/10/21 06:46:29;;;;;;;14.43;9.90;;;;;;;;;;4960110;28;20431;-71
2021/10/21 06:52:09;;;;;;;12.00;6.07;;;;;;;;;;4907855;29;20093;-71
2021/10/21 06:54:35;;;;;;;15.38;6.32;;;;;;;;;;4915230;29;20035;-76
2021/10/21 06:57:01;;;;;;;8.93;6.10;;;;;;;;;;4917136;29;20036;-74
2021/10/21 06:59:27;;;;;;;9.93;6.00;;;;;;;;;;4919650;29;20052;-83
2021/10/21 07:01:53;;;;;;;7.80;5.70;;;;;;;;;;4901410;29;20043;-79
2021/10/21 07:04:21;;;;;;;8.73;5.82;;;;;;;;;;4917708;29;20083;-89
2021/10/21 07:06:47;;;;;;;9.63;5.68;;;;;;;;;;4902478;29;20096;-83
2021/10/21 07:09:14;;;;;;;13.13;6.05;;;;;;;;;;4916307;29;20036;-80
2021/10/21 07:11:42;;;;;;;9.57;5.88;;;;;;;;;;4901216;29;20040;-89
2021/10/21 07:14:08;;;;;;;7.68;5.68;;;;;;;;;;4903705;29;20111;-79
2021/10/21 07:16:34;;;;;;;9.88;6.35;;;;;;;;;;4916423;29;20044;-77
2021/10/21 07:19:02;;;;;;;7.75;5.30;;;;;;;;;;4917371;29;20497;-72
2021/10/21 07:21:29;;;;;;;8.50;5.72;;;;;;;;;;4916349;29;20143;-80
2021/10/21 07:23:57;;;;;;;9.55;4.93;;;;;;;;;;4917814;29;20095;-89
2021/10/21 07:26:23;;;;;;;12.13;4.93;;;;;;;;;;4901958;29;20040;-77
2021/10/21 07:28:49;;;;;;;11.00;5.60;;;;;;;;;;4938911;28;20131;-81
2021/10/21 07:31:18;;;;;;;5.72;4.40;;;;;;;;;;4966850;28;20018;-86
2021/10/21 07:33:44;;;;;;;9.43;5.13;;;;;;;;;;4968105;28;20027;-82
2021/10/21 07:36:11;;;;;;;9.48;5.05;;;;;;;;;;4955809;28;20031;-72
2021/10/21 07:38:52;;;;;;;9.00;5.05;;;;;;;;;;4965798;28;20022;-71
2021/10/21 07:41:19;;;;;;;8.38;5.43;;;;;;;;;;4943897;28;20043;-71
2021/10/21 07:44:03;;;;;;;10.95;6.07;;;;;;;;;;4968717;28;20054;-71
2021/10/21 07:46:30;;;;;;;16.33;5.88;;;;;;;;;;4955602;28;20038;-71
2021/10/21 07:48:57;;;;;;;8.95;4.65;;;;;;;;;;4960404;28;20441;-87
2021/10/21 07:51:23;;;;;;;8.05;5.13;;;;;;;;;;4953063;28;20023;-81
2021/10/21 07:53:49;;;;;;;6.47;4.97;;;;;;;;;;4954787;28;20045;-87
2021/10/21 07:56:15;;;;;;;7.68;4.57;;;;;;;;;;4943346;28;20027;-85
2021/10/21 07:58:41;;;;;;;8.35;4.80;;;;;;;;;;4951919;28;20049;-84
2021/10/21 08:01:07;;;;;;;10.27;6.45;;;;;;;;;;4958729;28;20050;-80
2021/10/21 08:03:33;;;;;;;25.85;16.42;;;;;;;;;;4968348;28;20031;-80
2021/10/21 08:06:00;;;;;;;9.48;5.88;;;;;;;;;;4963842;28;20050;-83
2021/10/21 08:08:26;;;;;;;9.27;5.40;;;;;;;;;;4954022;28;20559;-77
2021/10/21 08:10:52;;;;;;;10.00;5.38;;;;;;;;;;4968108;28;20039;-71
2021/10/21 08:13:18;;;;;;;7.55;4.80;;;;;;;;;;4974108;28;20041;-74
2021/10/21 08:15:44;;;;;;;20.48;5.55;;;;;;;;;;4973369;28;20042;-73
2021/10/21 08:18:12;;;;;;;13.75;5.80;;;;;;;;;;4956623;28;20049;-72
2021/10/21 08:20:38;;;;;;;13.10;6.13;;;;;;;;;;4968909;28;20480;-71
2021/10/21 08:23:05;;;;;;;12.68;6.15;;;;;;;;;;4969065;28;20034;-72
2021/10/21 08:25:31;;;;;;;10.65;5.80;;;;;;;;;;4953870;28;20078;-71
2021/10/21 08:27:57;;;;;;;8.93;5.90;;;;;;;;;;4959698;28;20031;-70
2021/10/21 08:30:25;;;;;;;11.15;5.68;;;;;;;;;;4965113;28;20031;-72
2021/10/21 08:32:54;;;;;;;7.38;5.40;;;;;;;;;;4975268;28;20058;-71
2021/10/21 08:35:20;;;;;;;10.23;6.03;;;;;;;;;;4969058;28;20424;-71
2021/10/21 08:37:47;;;;;;;7.80;5.50;;;;;;;;;;4973435;28;20023;-73
2021/10/21 08:40:14;;;;;;;11.93;6.63;;;;;;;;;;4967865;28;20484;-74
2021/10/21 08:42:40;;;;;;;8.50;5.60;;;;;;;;;;4943543;28;20027;-76
2021/10/21 08:45:07;;;;;;;7.85;5.20;;;;;;;;;;4955907;28;20031;-77
2021/10/21 08:47:33;;;;;;;14.15;9.50;;;;;;;;;;4970093;28;20030;-78
2021/10/21 08:52:45;;;;;;;8.82;5.97;;;;;;;;;;4965590;28;20082;-84
2021/10/21 08:55:12;;;;;;;7.03;5.20;;;;;;;;;;4943458;28;20097;-74
2021/10/21 08:57:38;;;;;;;10.50;6.25;;;;;;;;;;4972641;28;20027;-75
2021/10/21 09:00:05;;;;;;;11.38;7.55;;;;;;;;;;4972560;28;20034;-73
2021/10/21 09:09:15;;;;;;;16.90;9.15;;;;;;;;;;4881322;29;20083;-75
2021/10/21 09:14:43;;;;;;;26.13;9.73;;;;;;;;;;4860146;29;20530;-70
2021/10/21 09:17:15;;;;;;;18.52;9.40;;;;;;;;;;4859816;29;20044;-85
2021/10/21 09:19:42;;;;;;;15.80;7.53;;;;;;;;;;4857954;29;20056;-74
2021/10/21 09:22:24;;;;;;;16.42;8.55;;;;;;;;;;4859240;29;20096;-74
2021/10/21 09:24:51;;;;;;;39.25;18.88;;;;;;;;;;4858515;29;20045;-74
2021/10/21 09:27:18;;;;;;;27.02;12.80;;;;;;;;;;4858905;29;20504;-73
2021/10/21 09:29:50;;;;;;;20.85;9.73;;;;;;;;;;4859007;29;20029;-71
2021/10/21 09:32:21;;;;;;;19.92;9.82;;;;;;;;;;4858687;29;20042;-74
2021/10/21 09:34:58;;;;;;;11.05;6.50;;;;;;;;;;4858540;29;20066;-73
2021/10/21 09:37:24;;;;;;;33.40;14.98;;;;;;;;;;4858274;29;20193;-73
2021/10/21 09:39:55;;;;;;;40.33;16.98;;;;;;;;;;4859128;29;20434;-71
2021/10/21 09:42:28;;;;;;;27.17;12.52;;;;;;;;;;4857925;29;20034;-71
2021/10/21 09:45:10;;;;;;;22.17;10.23;;;;;;;;;;4884323;29;20403;-72
2021/10/21 09:47:37;;;;;;;36.90;17.75;;;;;;;;;;4885723;29;20045;-72
2021/10/21 09:50:15;;;;;;;20.15;10.70;;;;;;;;;;4882322;29;20037;-73
2021/10/21 09:52:41;;;;;;;32.05;13.18;;;;;;;;;;4970614;28;20046;-73
2021/10/21 09:55:12;;;;;;;19.38;10.23;;;;;;;;;;4966625;28;20474;-74
2021/10/21 09:57:39;;;;;;;20.95;9.95;;;;;;;;;;4970001;28;20480;-73
2021/10/21 10:00:07;;;;;;;24.70;12.07;;;;;;;;;;4969169;28;20440;-72
2021/10/21 10:02:33;;;;;;;17.75;9.27;;;;;;;;;;4971338;28;20031;-73
2021/10/21 10:05:02;;;;;;;25.85;13.68;;;;;;;;;;4957855;28;20027;-72
2021/10/21 10:07:28;;;;;;;40.30;20.35;;;;;;;;;;4958308;28;20035;-74
2021/10/21 10:10:01;;;;;;;31.40;14.43;;;;;;;;;;4962021;28;20027;-73
2021/10/21 10:12:29;;;;;;;78.93;35.85;;;;;;;;;;4972148;28;20030;-74
2021/10/21 10:14:55;;;;;;;24.83;12.98;;;;;;;;;;4970445;28;20114;-72
2021/10/21 10:17:21;;;;;;;15.77;8.82;;;;;;;;;;4958166;28;20028;-72
2021/10/21 10:19:49;;;;;;;12.75;6.55;;;;;;;;;;4970335;28;20484;-73
2021/10/21 10:22:18;;;;;;;16.40;7.07;;;;;;;;;;4974256;28;20027;-72
2021/10/21 10:24:44;;;;;;;11.35;7.80;;;;;;;;;;4961217;28;20085;-73
2021/10/21 10:27:21;;;;;;;10.80;7.35;;;;;;;;;;4973996;28;20062;-74
2021/10/21 10:29:47;;;;;;;11.70;7.80;;;;;;;;;;4976158;28;20037;-73
2021/10/21 10:32:32;;;;;;;12.48;7.85;;;;;;;;;;4967849;28;20477;-73
2021/10/21 10:35:03;;;;;;;17.02;8.77;;;;;;;;;;4968303;28;20063;-83
2021/10/21 10:37:29;;;;;;;17.23;8.55;;;;;;;;;;4975314;28;20023;-73
2021/10/21 10:39:58;;;;;;;12.30;7.15;;;;;;;;;;4972879;28;20051;-72
2021/10/21 10:42:30;;;;;;;12.02;8.10;;;;;;;;;;4973766;28;20384;-74
2021/10/21 10:45:00;;;;;;;12.57;8.95;;;;;;;;;;4972351;28;20022;-73
2021/10/21 10:47:38;;;;;;;17.05;9.57;;;;;;;;;;4969456;28;20055;-70
2021/10/21 10:50:05;;;;;;;12.23;9.45;;;;;;;;;;4970910;28;20489;-73
2021/10/21 10:52:49;;;;;;;16.08;10.05;;;;;;;;;;4969686;28;20473;-71
2021/10/21 10:55:20;;;;;;;12.13;8.63;;;;;;;;;;4975899;28;20034;-70
2021/10/21 10:57:48;;;;;;;14.02;8.27;;;;;;;;;;4969838;28;20038;-75
2021/10/21 11:00:35;;;;;;;12.98;9.35;;;;;;;;;;4969587;28;20105;-72
2021/10/21 11:03:01;;;;;;;15.50;8.40;;;;;;;;;;4966964;28;20022;-74
2021/10/21 11:05:56;;;;;;;13.57;7.47;;;;;;;;;;4949837;28;20034;-72
2021/10/21 11:08:42;;;;;;;11.32;6.68;;;;;;;;;;4919803;29;20410;-74
2021/10/21 11:11:08;;;;;;;12.35;7.78;;;;;;;;;;4921648;29;20039;-73
2021/10/21 11:13:47;;;;;;;12.63;7.68;;;;;;;;;;4921821;29;20100;-78
2021/10/21 11:16:32;;;;;;;14.77;8.07;;;;;;;;;;4904355;29;20036;-73
2021/10/21 11:19:11;;;;;;;12.55;6.97;;;;;;;;;;4922447;29;20040;-75
2021/10/21 11:21:57;;;;;;;12.35;9.10;;;;;;;;;;4916838;29;20055;-74
2021/10/21 11:24:50;;;;;;;16.08;8.60;;;;;;;;;;4920323;29;20066;-75
2021/10/21 11:28:02;;;;;;;10.43;7.03;;;;;;;;;;4920238;29;20095;-72
2021/10/21 11:30:47;;;;;;;8.30;7.03;;;;;;;;;;4911562;29;20040;-72
2021/10/21 11:33:21;;;;;;;15.88;7.60;;;;;;;;;;4919357;29;20036;-71
2021/10/21 11:36:02;;;;;;;14.95;7.80;;;;;;;;;;4922427;29;20047;-71
2021/10/21 11:38:29;;;;;;;14.18;10.25;;;;;;;;;;4920886;29;20067;-72
2021/10/21 11:41:07;;;;;;;11.57;7.53;;;;;;;;;;4917352;29;20115;-73
2021/10/21 11:43:38;;;;;;;16.30;10.98;;;;;;;;;;4916380;29;20513;-72
2021/10/21 11:46:44;;;;;;;17.52;11.20;;;;;;;;;;4967422;28;20108;-72
2021/10/21 11:49:10;;;;;;;14.23;10.43;;;;;;;;;;4880327;29;20033;-71
2021/10/21 11:51:39;;;;;;;18.52;7.47;;;;;;;;;;4879866;29;20049;-75
2021/10/21 11:54:08;;;;;;;16.15;8.38;;;;;;;;;;4887002;29;20057;-72
2021/10/21 11:56:38;;;;;;;17.40;9.45;;;;;;;;;;4886451;29;20168;-70
2021/10/21 11:59:04;;;;;;;14.43;9.85;;;;;;;;;;4877254;29;20048;-70
2021/10/21 12:01:30;;;;;;;21.92;12.48;;;;;;;;;;4881960;29;20033;-69
2021/10/21 12:03:57;;;;;;;16.23;10.18;;;;;;;;;;4879388;29;20043;-72
2021/10/21 12:06:28;;;;;;;18.17;11.43;;;;;;;;;;4886352;29;20090;-78
2021/10/21 12:08:58;;;;;;;65.72;40.25;;;;;;;;;;4864878;29;20029;-77
2021/10/21 12:11:55;;;;;;;23.38;15.73;;;;;;;;;;4880718;29;20115;-72
2021/10/21 12:14:30;;;;;;;25.42;16.13;;;;;;;;;;4877268;29;20063;-71
2021/10/21 12:16:57;;;;;;;32.45;18.20;;;;;;;;;;4882188;29;20028;-83
2021/10/21 12:19:29;;;;;;;19.00;12.95;;;;;;;;;;4866758;29;20037;-87
2021/10/21 12:24:55;;;;;;;22.35;14.30;;;;;;;;;;5090977;23;20499;-87
2021/10/21 12:27:22;;;;;;;16.77;9.73;;;;;;;;;;5015250;28;20033;-83
2021/10/21 12:29:49;;;;;;;23.15;16.90;;;;;;;;;;4995509;28;20018;-79
2021/10/21 12:32:21;;;;;;;16.17;11.90;;;;;;;;;;5013963;28;20029;-89
2021/10/21 12:34:47;;;;;;;19.02;13.13;;;;;;;;;;4996121;28;20057;-79
2021/10/21 12:37:24;;;;;;;18.40;11.43;;;;;;;;;;5012095;28;20578;-82
2021/10/21 12:39:50;;;;;;;23.17;13.88;;;;;;;;;;4995940;28;20046;-89
2021/10/21 12:42:21;;;;;;;16.00;10.50;;;;;;;;;;5013482;28;20435;-74
2021/10/21 12:44:57;;;;;;;31.25;21.05;;;;;;;;;;4994775;28;20173;-76
2021/10/21 12:47:25;;;;;;;29.45;20.40;;;;;;;;;;5013245;28;20029;-73
2021/10/21 12:49:55;;;;;;;14.57;10.05;;;;;;;;;;5013566;28;20069;-74
2021/10/21 12:52:34;;;;;;;22.45;15.10;;;;;;;;;;5012381;28;20379;-72
2021/10/21 12:55:14;;;;;;;32.60;22.25;;;;;;;;;;5013409;28;20049;-74
2021/10/21 12:58:06;;;;;;;22.45;16.27;;;;;;;;;;4995231;28;20124;-71
2021/10/21 13:00:38;;;;;;;27.10;15.65;;;;;;;;;;5012004;28;20081;-73
2021/10/21 13:03:06;;;;;;;18.08;12.20;;;;;;;;;;4995632;28;20167;-73
2021/10/21 13:05:33;;;;;;;19.10;13.50;;;;;;;;;;5012802;28;20041;-72
2021/10/21 13:08:06;;;;;;;16.80;11.43;;;;;;;;;;5012416;28;20030;-72
2021/10/21 13:10:33;;;;;;;24.77;16.33;;;;;;;;;;5012864;28;20052;-72
2021/10/21 13:12:59;;;;;;;17.13;13.63;;;;;;;;;;5012966;28;20033;-72
2021/10/21 13:15:25;;;;;;;28.45;17.25;;;;;;;;;;5013671;28;20066;-73
2021/10/21 13:17:51;;;;;;;30.52;21.23;;;;;;;;;;5009387;28;20488;-72
2021/10/21 13:20:21;;;;;;;24.30;11.43;;;;;;;;;;5003496;28;20506;-73
2021/10/21 13:22:47;;;;;;;24.75;15.32;;;;;;;;;;4995372;28;20018;-86
2021/10/21 13:25:13;;;;;;;18.85;13.00;;;;;;;;;;4994126;28;20042;-76
2021/10/21 13:27:41;;;;;;;34.38;18.05;;;;;;;;;;5013322;28;20080;-79
2021/10/21 13:30:08;;;;;;;37.55;21.75;;;;;;;;;;5012949;28;20029;-88
2021/10/21 13:32:34;;;;;;;29.58;16.48;;;;;;;;;;5012464;28;20087;-76
2021/10/21 13:35:01;;;;;;;27.27;17.70;;;;;;;;;;4994914;28;20492;-78
2021/10/21 13:37:27;;;;;;;26.98;15.45;;;;;;;;;;5012097;28;20018;-82
2021/10/21 13:39:55;;;;;;;79.55;17.60;;;;;;;;;;4989405;28;20041;-72
2021/10/21 13:42:21;;;;;;;29.48;17.00;;;;;;;;;;5012989;28;20026;-72
2021/10/21 13:44:47;;;;;;;43.42;24.80;;;;;;;;;;4995966;28;20551;-73
2021/10/21 13:47:14;;;;;;;34.28;21.70;;;;;;;;;;5010496;28;20042;-72
2021/10/21 13:49:42;;;;;;;63.47;33.60;;;;;;;;;;5012882;28;20522;-73
2021/10/21 13:52:08;;;;;;;52.03;25.20;;;;;;;;;;5013205;28;20423;-72
2021/10/21 13:54:37;;;;;;;62.60;31.63;;;;;;;;;;4999663;28;20368;-72
2021/10/21 13:57:04;;;;;;;42.60;24.33;;;;;;;;;;5013361;28;20021;-73
2021/10/21 13:59:31;;;;;;;19.23;12.90;;;;;;;;;;5013148;28;20084;-73
2021/10/21 14:01:57;;;;;;;42.67;25.50;;;;;;;;;;5012532;28;20506;-73
2021/10/21 14:04:23;;;;;;;24.98;14.43;;;;;;;;;;5011408;28;20034;-72
2021/10/21 14:06:49;;;;;;;24.33;16.67;;;;;;;;;;5012161;28;20030;-73
2021/10/21 14:09:15;;;;;;;21.50;13.07;;;;;;;;;;5007609;28;20080;-72
2021/10/21 14:11:42;;;;;;;20.67;12.90;;;;;;;;;;5013259;28;20076;-72
2021/10/21 14:14:08;;;;;;;26.75;14.50;;;;;;;;;;5012628;28;20048;-71
2021/10/21 14:16:35;;;;;;;18.30;12.43;;;;;;;;;;5008944;28;20479;-79
2021/10/21 14:19:04;;;;;;;33.35;20.00;;;;;;;;;;4993601;28;20411;-72
2021/10/21 14:21:31;;;;;;;29.20;19.52;;;;;;;;;;5011665;28;20475;-85
2021/10/21 14:23:57;;;;;;;28.88;15.32;;;;;;;;;;5006502;28;20432;-74
2021/10/21 14:26:30;;;;;;;19.23;11.68;;;;;;;;;;5011425;28;20087;-74
2021/10/21 14:28:56;;;;;;;21.40;11.60;;;;;;;;;;5011187;28;20080;-72
2021/10/21 14:31:25;;;;;;;18.27;11.38;;;;;;;;;;5009739;28;20033;-75
2021/10/21 14:33:51;;;;;;;19.15;10.55;;;;;;;;;;4993821;28;20475;-76
2021/10/21 14:36:26;;;;;;;17.65;10.65;;;;;;;;;;5011954;28;20391;-72
2021/10/21 14:38:55;;;;;;;17.63;10.70;;;;;;;;;;5009631;28;20486;-72
2021/10/21 14:41:25;;;;;;;18.73;11.10;;;;;;;;;;5014143;28;20022;-72
2021/10/21 14:43:51;;;;;;;21.30;11.35;;;;;;;;;;5011996;28;20439;-75
2021/10/21 14:46:37;;;;;;;28.33;16.92;;;;;;;;;;5011832;28;20034;-74
2021/10/21 14:49:05;;;;;;;17.55;12.23;;;;;;;;;;4992745;28;20029;-74
2021/10/21 14:51:34;;;;;;;20.25;12.13;;;;;;;;;;5012127;28;20036;-75
2021/10/21 14:54:01;;;;;;;20.70;13.82;;;;;;;;;;5011897;28;20076;-74
2021/10/21 14:56:27;;;;;;;19.33;12.65;;;;;;;;;;5012338;28;20440;-75
2021/10/21 14:58:53;;;;;;;24.10;13.30;;;;;;;;;;5012279;28;20026;-75
2021/10/21 15:01:19;;;;;;;25.05;13.05;;;;;;;;;;5006521;28;20026;-73
2021/10/21 15:03:53;;;;;;;24.50;13.27;;;;;;;;;;4993160;28;20038;-74
2021/10/21 15:22:48;;;;;;;23.83;17.08;;;;;;;;;;5015634;28;20041;-86
2021/10/21 15:25:17;;;;;;;26.15;15.40;;;;;;;;;;5003315;28;20077;-87
2021/10/21 15:27:59;;;;;;;29.00;20.35;;;;;;;;;;5010154;28;20080;-77
2021/10/21 15:30:38;;;;;;;24.65;17.23;;;;;;;;;;5010347;28;20032;-73
2021/10/21 15:33:06;;;;;;;29.00;18.02;;;;;;;;;;4996103;28;20025;-73
2021/10/21 15:35:32;;;;;;;27.20;19.70;;;;;;;;;;5002159;28;20042;-74
2021/10/21 15:37:59;;;;;;;30.77;18.63;;;;;;;;;;5007771;28;20018;-74